Time;durP1;ratioP1;P1;durP2;ratioP2;P2;SDS_P1;SDS_P2;PMS_P1;PMS_P2;Temp;Humidity;BMP_temperature;BMP_pressure;BME280_temperature;BME280_humidity;BME280_pressure;Samples;Min_cycle;Max_cycle;Signal;HPM_P1;HPM_P2
2023/05/09 00:00:33;;;;;;;10.73;8.95;;;14.70;99.90;;;;;;4991221;28;20062;-71
2023/05/09 00:03:01;;;;;;;9.32;8.38;;;14.70;99.90;;;;;;4975767;28;20403;-70
2023/05/09 00:05:28;;;;;;;10.90;9.13;;;14.70;99.90;;;;;;4985121;28;20042;-71
2023/05/09 00:07:55;;;;;;;9.55;8.55;;;14.70;99.90;;;;;;4992378;28;20049;-70
2023/05/09 00:10:23;;;;;;;10.10;9.10;;;14.70;99.90;;;;;;4992944;28;20030;-72
2023/05/09 00:12:51;;;;;;;10.80;9.57;;;14.70;99.90;;;;;;4991127;28;20050;-69
2023/05/09 00:15:19;;;;;;;9.82;8.70;;;14.70;99.90;;;;;;4991446;28;20073;-69
2023/05/09 00:17:46;;;;;;;11.15;9.02;;;14.70;99.90;;;;;;4992875;28;20046;-70
2023/05/09 00:20:14;;;;;;;9.23;8.30;;;14.70;99.90;;;;;;4991207;28;20108;-70
2023/05/09 00:22:41;;;;;;;9.45;8.30;;;14.70;99.90;;;;;;4991009;28;20050;-69
2023/05/09 00:25:10;;;;;;;9.48;8.48;;;14.70;99.90;;;;;;4975423;28;20054;-70
2023/05/09 00:27:38;;;;;;;10.90;8.68;;;14.70;99.90;;;;;;4992492;28;20038;-71
2023/05/09 00:30:06;;;;;;;10.57;8.80;;;14.70;99.90;;;;;;4975570;28;20047;-70
2023/05/09 00:32:34;;;;;;;9.32;8.32;;;14.70;99.90;;;;;;5000100;28;20069;-71
2023/05/09 00:35:02;;;;;;;10.65;8.25;;;14.70;99.90;;;;;;4991601;28;20521;-71
2023/05/09 00:37:30;;;;;;;9.50;8.50;;;14.70;99.90;;;;;;4997674;28;20048;-70
2023/05/09 00:39:58;;;;;;;9.60;8.35;;;14.70;99.90;;;;;;4994544;28;20451;-71
2023/05/09 00:42:25;;;;;;;9.25;8.18;;;14.70;99.90;;;;;;5006207;28;20042;-69
2023/05/09 00:44:52;;;;;;;10.63;8.52;;;14.70;99.90;;;;;;4973605;28;20134;-69
2023/05/09 00:47:23;;;;;;;10.10;8.82;;;14.70;99.90;;;;;;4986588;28;20052;-71
2023/05/09 00:49:50;;;;;;;9.25;8.35;;;14.70;99.90;;;;;;4991181;28;20127;-70
2023/05/09 00:52:22;;;;;;;10.35;8.73;;;14.70;99.90;;;;;;4990793;28;20043;-68
2023/05/09 00:54:51;;;;;;;10.45;8.25;;;14.70;99.90;;;;;;4998860;28;20046;-70
2023/05/09 00:57:18;;;;;;;13.70;8.82;;;14.70;99.90;;;;;;5000812;28;20049;-70
2023/05/09 00:59:46;;;;;;;9.82;8.05;;;14.70;99.90;;;;;;4999881;28;20058;-69
2023/05/09 01:02:16;;;;;;;10.00;9.00;;;14.70;99.90;;;;;;4990852;28;20039;-71
2023/05/09 01:04:45;;;;;;;8.90;8.00;;;14.70;99.90;;;;;;4989721;28;20042;-71
2023/05/09 01:07:43;;;;;;;9.65;8.50;;;14.70;99.90;;;;;;4993941;28;20038;-71
2023/05/09 01:10:36;;;;;;;8.93;8.02;;;14.70;99.90;;;;;;4975628;28;20194;-68
2023/05/09 01:13:44;;;;;;;11.05;8.98;;;14.60;99.90;;;;;;4972040;28;20054;-71
2023/05/09 01:16:44;;;;;;;9.48;8.50;;;14.50;99.90;;;;;;4999974;28;20046;-69
2023/05/09 01:19:46;;;;;;;9.85;8.73;;;14.50;99.90;;;;;;4975804;28;20050;-72
2023/05/09 01:22:15;;;;;;;9.98;9.00;;;14.50;99.90;;;;;;4985983;28;20134;-70
2023/05/09 01:25:00;;;;;;;9.38;8.45;;;14.50;99.90;;;;;;4990833;28;20498;-69
2023/05/09 01:27:36;;;;;;;10.90;8.73;;;14.50;99.90;;;;;;4977730;28;20513;-69
2023/05/09 01:30:05;;;;;;;12.50;9.40;;;14.50;99.90;;;;;;4962924;28;20054;-69
2023/05/09 01:32:36;;;;;;;11.63;9.52;;;14.40;99.90;;;;;;4990138;28;20046;-70
2023/05/09 01:35:05;;;;;;;9.48;8.48;;;14.50;99.90;;;;;;4992050;28;20494;-70
2023/05/09 01:37:38;;;;;;;12.60;9.43;;;14.50;99.90;;;;;;4991112;28;20074;-70
2023/05/09 01:40:10;;;;;;;11.50;9.45;;;14.40;99.90;;;;;;4991040;28;20065;-70
2023/05/09 01:42:58;;;;;;;9.95;9.05;;;14.40;99.90;;;;;;4972527;28;20046;-69
2023/05/09 01:45:27;;;;;;;9.82;8.88;;;14.40;99.90;;;;;;4991981;28;20039;-69
2023/05/09 01:47:56;;;;;;;15.43;9.82;;;14.40;99.90;;;;;;4969299;28;20042;-70
2023/05/09 01:50:25;;;;;;;11.38;9.48;;;14.40;99.90;;;;;;5004797;28;20113;-72
2023/05/09 01:52:55;;;;;;;13.48;9.52;;;14.40;99.90;;;;;;4990491;28;20053;-70
2023/05/09 01:55:26;;;;;;;13.68;10.27;;;14.40;99.90;;;;;;4990058;28;20053;-71
2023/05/09 01:57:56;;;;;;;9.98;8.98;;;14.30;99.90;;;;;;5000763;28;20135;-71
2023/05/09 02:00:24;;;;;;;12.55;9.63;;;14.30;99.90;;;;;;4986886;28;20073;-71
2023/05/09 02:02:53;;;;;;;10.10;9.07;;;14.30;99.90;;;;;;4986927;28;20038;-71
2023/05/09 02:05:26;;;;;;;11.30;10.13;;;14.30;99.90;;;;;;4992902;28;20121;-72
2023/05/09 02:07:57;;;;;;;10.52;9.50;;;14.30;99.90;;;;;;4983758;28;20038;-71
2023/05/09 02:10:27;;;;;;;10.37;9.27;;;14.30;99.90;;;;;;4988070;28;20042;-72
2023/05/09 02:12:55;;;;;;;12.45;10.30;;;14.20;99.90;;;;;;4989960;28;20285;-71
2023/05/09 02:15:24;;;;;;;11.10;10.10;;;14.20;99.90;;;;;;4987673;28;20046;-71
2023/05/09 02:17:52;;;;;;;11.70;10.23;;;14.20;99.90;;;;;;4989101;28;20046;-71
2023/05/09 02:20:19;;;;;;;12.73;9.90;;;14.20;99.90;;;;;;4992020;28;20108;-71
2023/05/09 02:22:47;;;;;;;13.00;10.02;;;14.20;99.90;;;;;;4975730;28;20046;-72
2023/05/09 02:25:15;;;;;;;12.07;10.23;;;14.20;99.90;;;;;;4987736;28;20046;-71
2023/05/09 02:27:45;;;;;;;11.10;9.60;;;14.20;99.90;;;;;;4989388;28;20456;-71
2023/05/09 02:30:22;;;;;;;11.63;10.43;;;14.20;99.90;;;;;;4990662;28;20169;-72
2023/05/09 02:32:55;;;;;;;12.35;10.35;;;14.20;99.90;;;;;;4988164;28;20121;-71
2023/05/09 02:35:26;;;;;;;11.15;10.05;;;14.30;99.90;;;;;;4982060;28;20046;-71
2023/05/09 02:37:54;;;;;;;11.68;10.48;;;14.20;99.90;;;;;;4976430;28;20081;-70
2023/05/09 02:40:22;;;;;;;13.25;10.25;;;14.20;99.90;;;;;;4987553;28;20542;-70
2023/05/09 02:42:49;;;;;;;11.95;10.75;;;14.20;99.90;;;;;;4995109;28;20481;-71
2023/05/09 02:45:16;;;;;;;13.48;10.45;;;14.20;99.90;;;;;;4974593;28;20068;-70
2023/05/09 02:47:44;;;;;;;11.98;10.40;;;14.20;99.90;;;;;;4994466;28;20043;-70
2023/05/09 02:50:11;;;;;;;14.23;10.77;;;14.20;99.90;;;;;;4978220;28;20102;-69
2023/05/09 02:52:39;;;;;;;12.05;10.60;;;14.20;99.90;;;;;;4972179;28;20145;-71
2023/05/09 02:55:08;;;;;;;14.07;10.80;;;14.20;99.90;;;;;;4998219;28;20046;-70
2023/05/09 02:57:38;;;;;;;10.52;9.52;;;14.10;99.90;;;;;;4973892;28;20054;-69
2023/05/09 03:00:10;;;;;;;12.35;10.05;;;14.20;99.90;;;;;;4980891;28;20055;-70
2023/05/09 03:02:38;;;;;;;11.52;10.18;;;14.10;99.90;;;;;;4986657;28;20073;-70
2023/05/09 03:05:11;;;;;;;12.38;11.00;;;14.10;99.90;;;;;;4987252;28;20066;-72
2023/05/09 03:07:40;;;;;;;12.20;11.00;;;14.10;99.90;;;;;;4971874;28;20092;-69
2023/05/09 03:10:10;;;;;;;12.43;11.13;;;14.10;99.90;;;;;;4986140;28;20070;-70
2023/05/09 03:12:38;;;;;;;11.38;10.18;;;14.10;99.90;;;;;;4987563;28;20129;-70
2023/05/09 03:15:07;;;;;;;13.75;10.27;;;14.10;99.90;;;;;;4995254;28;20042;-71
2023/05/09 03:17:34;;;;;;;11.65;10.30;;;14.10;99.90;;;;;;4988157;28;20045;-69
2023/05/09 03:20:06;;;;;;;12.25;10.95;;;14.10;99.90;;;;;;4987025;28;20042;-70
2023/05/09 03:22:36;;;;;;;13.13;10.80;;;14.10;99.90;;;;;;4988410;28;20074;-70
2023/05/09 03:25:06;;;;;;;11.97;10.77;;;14.00;99.90;;;;;;4988725;28;20041;-71
2023/05/09 03:27:34;;;;;;;12.45;10.93;;;14.00;99.90;;;;;;4968273;28;20293;-71
2023/05/09 03:30:03;;;;;;;14.38;11.52;;;13.90;99.90;;;;;;4983243;28;20474;-70
2023/05/09 03:32:31;;;;;;;13.43;11.43;;;13.90;99.90;;;;;;4992536;28;20053;-70
2023/05/09 03:34:58;;;;;;;15.73;11.40;;;13.90;99.90;;;;;;4990517;28;20050;-71
2023/05/09 03:37:26;;;;;;;12.15;10.63;;;13.80;99.90;;;;;;4973266;28;20042;-70
2023/05/09 03:39:55;;;;;;;12.70;11.30;;;13.80;99.90;;;;;;4987567;28;20104;-70
2023/05/09 03:42:22;;;;;;;13.32;11.05;;;13.80;99.90;;;;;;4963626;28;20050;-70
2023/05/09 03:44:53;;;;;;;12.93;11.20;;;13.80;99.90;;;;;;4988090;28;20482;-70
2023/05/09 03:47:21;;;;;;;12.88;11.40;;;13.70;99.90;;;;;;4973107;28;20050;-70
2023/05/09 03:49:49;;;;;;;14.02;11.40;;;13.80;99.90;;;;;;4988502;28;20218;-70
2023/05/09 03:52:20;;;;;;;13.57;11.93;;;13.80;99.90;;;;;;4998929;28;20033;-71
2023/05/09 03:54:47;;;;;;;16.20;13.23;;;13.80;99.90;;;;;;4996940;28;20055;-70
2023/05/09 03:57:15;;;;;;;16.63;13.98;;;13.70;99.90;;;;;;4955623;28;20690;-70
2023/05/09 03:59:44;;;;;;;14.82;12.05;;;13.70;99.90;;;;;;4970898;28;20121;-71
2023/05/09 04:02:13;;;;;;;12.43;11.13;;;13.80;99.90;;;;;;4989385;28;20038;-70
2023/05/09 04:04:40;;;;;;;13.73;10.95;;;13.80;99.90;;;;;;4993327;28;20057;-69
2023/05/09 04:07:08;;;;;;;14.32;11.75;;;13.80;99.90;;;;;;4989146;28;20038;-70
2023/05/09 04:09:35;;;;;;;13.25;11.85;;;13.80;99.90;;;;;;4961425;28;20149;-69
2023/05/09 04:12:03;;;;;;;13.10;11.70;;;14.00;99.90;;;;;;4966039;28;20057;-70
2023/05/09 04:14:31;;;;;;;15.85;11.93;;;14.00;99.90;;;;;;4976207;28;20545;-70
2023/05/09 04:16:58;;;;;;;15.38;13.02;;;14.00;99.90;;;;;;4972725;28;20050;-71
2023/05/09 04:19:26;;;;;;;19.38;13.43;;;14.00;99.90;;;;;;4984032;28;20122;-70
2023/05/09 04:21:53;;;;;;;15.73;14.02;;;14.00;99.90;;;;;;4986240;28;20043;-70
2023/05/09 04:24:21;;;;;;;16.70;13.35;;;14.00;99.90;;;;;;4986268;28;20042;-70
2023/05/09 04:26:49;;;;;;;15.93;12.13;;;14.10;99.90;;;;;;4975405;28;20039;-71
2023/05/09 04:29:20;;;;;;;18.52;12.70;;;14.10;99.90;;;;;;4983572;28;20042;-71
2023/05/09 04:31:52;;;;;;;16.05;12.48;;;14.20;99.90;;;;;;4973915;28;20050;-70
2023/05/09 04:34:24;;;;;;;12.95;11.30;;;14.30;99.90;;;;;;4990648;28;20153;-71
2023/05/09 04:36:54;;;;;;;14.48;12.05;;;14.30;99.90;;;;;;4991028;28;20066;-71
2023/05/09 04:39:21;;;;;;;13.48;11.35;;;14.40;99.90;;;;;;4991361;28;20034;-70
2023/05/09 04:41:58;;;;;;;13.73;11.60;;;14.40;99.90;;;;;;4974205;28;20050;-71
2023/05/09 04:44:25;;;;;;;14.40;11.80;;;14.40;99.90;;;;;;4981673;28;20064;-71
2023/05/09 04:46:53;;;;;;;13.35;11.88;;;14.50;99.90;;;;;;4989588;28;20050;-71
2023/05/09 04:49:21;;;;;;;14.55;11.48;;;14.60;99.90;;;;;;4958312;28;20106;-71
2023/05/09 04:51:49;;;;;;;15.57;12.05;;;14.60;99.90;;;;;;5000215;28;20049;-72
2023/05/09 04:54:17;;;;;;;14.02;12.07;;;14.60;99.90;;;;;;4998387;28;20060;-70
2023/05/09 04:56:45;;;;;;;14.60;11.68;;;14.70;99.90;;;;;;4974732;28;20066;-71
2023/05/09 04:59:15;;;;;;;14.90;11.88;;;14.80;99.90;;;;;;4984927;28;20039;-73
2023/05/09 05:01:43;;;;;;;12.00;10.80;;;14.80;99.90;;;;;;4973455;28;20058;-72
2023/05/09 05:04:11;;;;;;;13.43;12.02;;;14.90;99.90;;;;;;4990318;28;20038;-71
2023/05/09 05:06:39;;;;;;;13.07;11.73;;;15.00;99.90;;;;;;4990457;28;20420;-70
2023/05/09 05:09:08;;;;;;;14.07;12.02;;;15.10;99.90;;;;;;4990122;28;20046;-69
2023/05/09 05:11:36;;;;;;;15.25;12.15;;;15.20;99.90;;;;;;4991712;28;20045;-69
2023/05/09 05:14:04;;;;;;;12.90;11.45;;;15.30;99.90;;;;;;4990767;28;20130;-70
2023/05/09 05:16:32;;;;;;;13.18;11.88;;;15.40;99.90;;;;;;4974405;28;20038;-70
2023/05/09 05:18:59;;;;;;;12.48;11.18;;;15.50;99.90;;;;;;4992101;28;20104;-70
2023/05/09 05:21:28;;;;;;;11.80;10.32;;;15.60;99.90;;;;;;4964592;28;20046;-70
2023/05/09 05:23:55;;;;;;;13.70;11.10;;;15.70;99.90;;;;;;4981094;28;20053;-70
2023/05/09 05:26:24;;;;;;;14.38;12.32;;;15.70;99.90;;;;;;4973294;28;20186;-70
2023/05/09 05:28:54;;;;;;;13.20;11.80;;;15.80;99.90;;;;;;4983907;28;20503;-70
2023/05/09 05:31:23;;;;;;;14.40;11.52;;;15.90;99.90;;;;;;4965411;28;20050;-70
2023/05/09 05:33:50;;;;;;;13.40;11.95;;;16.00;99.90;;;;;;4965082;28;20042;-70
2023/05/09 05:36:20;;;;;;;11.80;10.65;;;16.10;99.90;;;;;;4973526;28;20077;-71
2023/05/09 05:38:47;;;;;;;12.18;10.98;;;16.20;99.90;;;;;;4991300;28;20512;-72
2023/05/09 05:41:14;;;;;;;16.60;11.20;;;16.30;99.90;;;;;;4990754;28;20045;-71
2023/05/09 05:43:42;;;;;;;14.45;11.70;;;16.30;99.90;;;;;;4965464;28;20042;-72
2023/05/09 05:46:11;;;;;;;12.23;10.80;;;16.40;99.90;;;;;;4956046;28;20043;-71
2023/05/09 05:48:38;;;;;;;12.23;10.93;;;16.40;99.90;;;;;;4986948;28;20076;-73
2023/05/09 05:51:06;;;;;;;16.17;11.40;;;16.40;99.90;;;;;;4996849;28;20051;-72
2023/05/09 05:53:35;;;;;;;12.25;11.02;;;16.30;99.90;;;;;;4964467;28;20046;-70
2023/05/09 05:56:02;;;;;;;12.65;11.35;;;16.20;99.90;;;;;;4988895;28;20591;-74
2023/05/09 05:58:31;;;;;;;12.20;10.95;;;16.10;99.90;;;;;;4973584;28;20108;-72
2023/05/09 06:00:58;;;;;;;15.65;11.45;;;16.20;99.90;;;;;;4989943;28;20058;-73
2023/05/09 06:03:26;;;;;;;14.60;10.93;;;16.20;99.90;;;;;;4967809;28;20142;-70
2023/05/09 06:06:00;;;;;;;11.98;10.40;;;16.30;99.90;;;;;;4983838;28;20137;-72
2023/05/09 06:08:27;;;;;;;11.75;9.68;;;16.30;99.90;;;;;;4985730;28;20117;-70
2023/05/09 06:10:57;;;;;;;11.90;10.02;;;16.30;99.90;;;;;;4991439;28;20067;-69
2023/05/09 06:13:24;;;;;;;13.70;9.38;;;16.10;99.90;;;;;;4988808;28;20392;-70
2023/05/09 06:15:58;;;;;;;10.55;9.43;;;16.20;99.90;;;;;;4977470;28;20127;-70
2023/05/09 06:18:38;;;;;;;14.77;9.50;;;16.20;99.90;;;;;;4952885;28;20085;-71
2023/05/09 06:21:06;;;;;;;11.18;9.60;;;16.10;99.90;;;;;;4986850;28;20057;-70
2023/05/09 06:23:35;;;;;;;11.48;9.52;;;16.10;99.90;;;;;;4972468;28;20712;-69
2023/05/09 06:26:06;;;;;;;11.57;10.40;;;16.10;99.90;;;;;;4989759;28;20035;-70
2023/05/09 06:28:34;;;;;;;10.02;8.80;;;15.90;99.90;;;;;;4989558;28;20112;-70
2023/05/09 06:31:01;;;;;;;13.07;9.02;;;15.90;99.90;;;;;;4988147;28;20061;-70
2023/05/09 06:33:28;;;;;;;11.02;9.82;;;15.90;99.90;;;;;;4990023;28;20038;-70
2023/05/09 06:35:58;;;;;;;9.82;8.82;;;15.90;99.90;;;;;;4986708;28;20039;-72
2023/05/09 06:38:25;;;;;;;11.23;9.32;;;15.80;99.90;;;;;;4989570;28;20122;-71
2023/05/09 06:40:53;;;;;;;14.15;9.20;;;15.70;99.90;;;;;;4988869;28;20042;-70
2023/05/09 06:43:21;;;;;;;11.18;8.93;;;15.70;99.90;;;;;;4979788;28;20065;-69
2023/05/09 06:45:48;;;;;;;10.55;9.50;;;15.80;99.90;;;;;;4986493;28;20486;-70
2023/05/09 06:48:15;;;;;;;10.13;9.02;;;15.90;99.90;;;;;;4987926;28;20065;-69
2023/05/09 06:50:43;;;;;;;10.90;8.93;;;16.00;99.90;;;;;;5001309;28;20057;-70
2023/05/09 06:53:10;;;;;;;10.88;9.32;;;16.10;99.90;;;;;;4964807;28;20082;-70
2023/05/09 06:55:38;;;;;;;10.30;8.85;;;16.20;99.90;;;;;;4963393;28;20065;-69
2023/05/09 06:58:05;;;;;;;9.70;8.70;;;16.30;99.90;;;;;;4986714;28;20084;-69
2023/05/09 07:00:32;;;;;;;10.00;8.65;;;16.30;99.90;;;;;;4984683;28;20056;-69
2023/05/09 07:03:00;;;;;;;11.13;9.32;;;16.40;99.90;;;;;;4986221;28;20510;-69
2023/05/09 07:05:27;;;;;;;9.43;8.43;;;16.40;99.90;;;;;;4986929;28;20031;-70
2023/05/09 07:07:55;;;;;;;10.55;8.63;;;16.40;99.90;;;;;;4987262;28;20050;-69
2023/05/09 07:10:23;;;;;;;9.43;8.18;;;16.30;99.90;;;;;;4979927;28;20038;-69
2023/05/09 07:12:51;;;;;;;13.93;9.50;;;16.20;99.90;;;;;;4984740;28;20053;-69
2023/05/09 07:15:19;;;;;;;9.68;8.68;;;16.20;99.90;;;;;;4981147;28;20086;-69
2023/05/09 07:18:03;;;;;;;11.20;8.25;;;16.10;99.90;;;;;;4986396;28;20042;-69
2023/05/09 07:20:31;;;;;;;8.63;7.78;;;16.00;99.90;;;;;;4987742;28;20117;-69
2023/05/09 07:22:59;;;;;;;15.30;8.95;;;16.20;99.90;;;;;;4972201;28;20042;-69
2023/05/09 07:25:27;;;;;;;12.15;8.25;;;16.20;99.90;;;;;;4993497;28;20044;-70
2023/05/09 07:27:55;;;;;;;8.98;8.05;;;16.30;99.90;;;;;;4991178;28;20125;-68
2023/05/09 07:30:23;;;;;;;9.43;8.45;;;16.40;99.90;;;;;;4979858;28;20046;-71
2023/05/09 07:32:51;;;;;;;12.32;8.65;;;16.50;99.90;;;;;;4989368;28;20429;-70
2023/05/09 07:35:19;;;;;;;10.52;8.93;;;16.60;99.90;;;;;;4988903;28;20740;-70
2023/05/09 07:37:47;;;;;;;9.30;8.40;;;16.70;99.90;;;;;;4989923;28;20045;-70
2023/05/09 07:40:15;;;;;;;13.15;8.68;;;16.80;99.90;;;;;;4985218;28;20081;-70
2023/05/09 07:42:48;;;;;;;16.77;10.07;;;16.90;99.90;;;;;;4986442;28;20085;-70
2023/05/09 07:45:17;;;;;;;9.18;8.20;;;16.80;99.90;;;;;;4988551;28;20461;-71
2023/05/09 07:47:47;;;;;;;9.88;7.75;;;16.70;99.90;;;;;;4983554;28;20051;-70
2023/05/09 07:50:16;;;;;;;9.75;8.32;;;16.70;99.90;;;;;;5002641;28;20057;-70
2023/05/09 07:52:44;;;;;;;9.02;7.78;;;16.70;99.90;;;;;;4986428;28;20042;-69
2023/05/09 07:55:12;;;;;;;9.07;7.70;;;16.80;99.90;;;;;;4988931;28;20058;-69
2023/05/09 07:57:40;;;;;;;10.65;8.00;;;16.80;99.90;;;;;;4974129;28;20109;-71
2023/05/09 08:00:09;;;;;;;8.40;7.50;;;16.90;99.90;;;;;;4992270;28;20054;-69
2023/05/09 08:02:41;;;;;;;10.65;8.25;;;16.90;99.90;;;;;;4990999;28;20417;-70
2023/05/09 08:05:10;;;;;;;8.25;7.45;;;17.00;99.90;;;;;;4992581;28;20038;-70
2023/05/09 08:07:39;;;;;;;12.57;7.50;;;17.10;99.90;;;;;;4995373;28;20099;-70
2023/05/09 08:10:08;;;;;;;9.00;7.85;;;17.20;99.90;;;;;;5005892;28;20141;-69
2023/05/09 08:12:36;;;;;;;9.60;7.80;;;17.40;99.90;;;;;;4989766;28;20070;-70
2023/05/09 08:15:04;;;;;;;11.35;7.95;;;17.50;99.90;;;;;;4993050;28;20081;-70
2023/05/09 08:17:32;;;;;;;9.13;7.47;;;17.60;99.90;;;;;;4990211;28;20052;-70
2023/05/09 08:20:00;;;;;;;9.18;7.50;;;17.70;99.90;;;;;;4973088;28;20508;-70
2023/05/09 08:22:27;;;;;;;8.13;7.32;;;17.70;99.90;;;;;;4997847;28;20057;-70
2023/05/09 08:24:55;;;;;;;8.45;7.57;;;17.80;99.90;;;;;;4990026;28;20050;-70
2023/05/09 08:27:25;;;;;;;9.63;8.10;;;17.80;99.90;;;;;;4987791;28;20047;-70
2023/05/09 08:30:00;;;;;;;9.35;8.35;;;17.90;99.90;;;;;;4972896;28;20062;-69
2023/05/09 08:32:29;;;;;;;9.43;8.40;;;17.90;99.90;;;;;;4990465;28;20045;-70
2023/05/09 08:34:57;;;;;;;9.43;8.27;;;17.90;99.90;;;;;;4990872;28;20458;-68
2023/05/09 08:37:26;;;;;;;13.23;8.13;;;18.00;99.90;;;;;;4983175;28;20273;-70
2023/05/09 08:39:53;;;;;;;9.80;8.52;;;18.00;99.90;;;;;;4986583;28;20046;-70
2023/05/09 08:42:22;;;;;;;9.27;8.30;;;18.00;99.90;;;;;;4998429;28;20042;-69
2023/05/09 08:44:52;;;;;;;8.23;7.40;;;18.20;99.90;;;;;;4973538;28;20093;-70
2023/05/09 08:47:21;;;;;;;9.10;8.20;;;18.20;99.90;;;;;;4993937;28;20136;-70
2023/05/09 08:49:50;;;;;;;9.85;7.90;;;18.40;99.90;;;;;;4995337;28;20129;-69
2023/05/09 08:52:17;;;;;;;8.10;7.15;;;18.50;99.90;;;;;;4973507;28;20046;-70
2023/05/09 08:54:45;;;;;;;9.10;7.70;;;18.60;99.90;;;;;;4990756;28;20042;-70
2023/05/09 08:57:14;;;;;;;10.13;7.90;;;18.60;99.90;;;;;;4973940;28;20053;-71
2023/05/09 08:59:42;;;;;;;9.45;8.30;;;18.70;99.90;;;;;;4990725;28;20065;-70
2023/05/09 09:02:13;;;;;;;13.95;11.20;;;18.70;99.90;;;;;;4990973;28;20042;-70
2023/05/09 09:04:40;;;;;;;7.75;6.95;;;18.80;99.90;;;;;;4995675;28;20141;-71
2023/05/09 09:07:09;;;;;;;8.40;7.53;;;18.90;99.90;;;;;;4998331;28;20046;-71
2023/05/09 09:09:38;;;;;;;8.48;7.53;;;19.10;99.90;;;;;;4969585;28;20066;-70
2023/05/09 09:12:08;;;;;;;10.07;7.10;;;19.10;99.90;;;;;;5004525;28;20046;-70
2023/05/09 09:14:41;;;;;;;9.07;7.55;;;19.10;99.90;;;;;;5002584;28;20035;-71
2023/05/09 09:17:14;;;;;;;7.40;6.70;;;19.20;99.90;;;;;;4991404;28;20129;-72
2023/05/09 09:19:43;;;;;;;8.32;7.47;;;19.30;99.90;;;;;;4989181;28;20362;-70
2023/05/09 09:22:15;;;;;;;8.10;7.28;;;19.30;99.90;;;;;;4988933;28;20054;-72
2023/05/09 09:24:43;;;;;;;7.18;6.50;;;19.40;99.90;;;;;;4989737;28;20181;-71
2023/05/09 09:27:10;;;;;;;8.38;7.30;;;19.60;99.90;;;;;;4969953;28;20052;-70
2023/05/09 09:29:37;;;;;;;7.90;6.85;;;19.80;99.90;;;;;;4986104;28;20099;-69
2023/05/09 09:32:06;;;;;;;8.82;6.85;;;19.90;99.90;;;;;;4987406;28;20046;-72
2023/05/09 09:34:34;;;;;;;9.15;7.10;;;20.00;99.90;;;;;;4975656;28;20039;-69
2023/05/09 09:37:02;;;;;;;7.25;6.60;;;20.10;99.90;;;;;;4980592;28;20050;-73
2023/05/09 09:39:29;;;;;;;8.43;6.20;;;20.20;99.90;;;;;;4991867;28;20060;-73
2023/05/09 09:42:09;;;;;;;7.32;6.63;;;20.30;98.30;;;;;;4997748;28;20046;-72
2023/05/09 09:44:37;;;;;;;7.80;7.03;;;20.50;97.70;;;;;;4981890;28;20041;-71
2023/05/09 09:47:09;;;;;;;12.73;7.97;;;20.60;97.10;;;;;;4987489;28;20049;-71
2023/05/09 09:49:36;;;;;;;7.32;6.55;;;20.70;97.20;;;;;;4988615;28;20042;-71
2023/05/09 09:52:04;;;;;;;8.98;6.68;;;20.90;96.50;;;;;;4987477;28;20056;-71
2023/05/09 09:54:32;;;;;;;7.50;6.70;;;21.00;96.10;;;;;;4988302;28;20069;-72
2023/05/09 09:57:00;;;;;;;8.73;7.10;;;21.20;95.90;;;;;;4987583;28;20141;-70
2023/05/09 09:59:28;;;;;;;9.73;6.95;;;21.30;94.10;;;;;;4988487;28;20550;-70
2023/05/09 10:01:55;;;;;;;8.73;7.20;;;21.20;93.90;;;;;;4969257;28;20601;-69
2023/05/09 10:04:23;;;;;;;7.30;6.60;;;21.30;93.90;;;;;;4996384;28;20357;-71
2023/05/09 10:06:59;;;;;;;7.80;7.03;;;21.40;94.20;;;;;;5003158;28;20129;-71
2023/05/09 10:09:27;;;;;;;7.57;6.88;;;21.50;94.30;;;;;;4979454;28;20101;-71
2023/05/09 10:11:56;;;;;;;8.13;7.32;;;21.60;93.30;;;;;;4987892;28;20057;-71
2023/05/09 10:14:24;;;;;;;9.18;7.18;;;21.80;93.90;;;;;;4988118;28;20064;-72
2023/05/09 10:16:55;;;;;;;7.20;6.50;;;21.90;92.30;;;;;;4971381;28;20061;-72
2023/05/09 10:19:26;;;;;;;10.98;7.55;;;22.10;92.70;;;;;;4985430;28;20744;-70
2023/05/09 10:21:59;;;;;;;8.60;7.40;;;22.30;92.20;;;;;;4986365;28;20123;-70
2023/05/09 10:24:41;;;;;;;8.05;7.25;;;22.10;91.80;;;;;;4988964;28;20047;-69
2023/05/09 10:27:11;;;;;;;7.40;6.70;;;22.10;92.00;;;;;;4993518;28;20648;-70
2023/05/09 10:30:11;;;;;;;7.45;6.75;;;22.40;91.30;;;;;;4959976;28;20068;-73
2023/05/09 10:33:01;;;;;;;8.65;6.68;;;22.50;89.70;;;;;;4985280;28;20058;-72
2023/05/09 10:35:35;;;;;;;8.18;7.22;;;22.80;90.00;;;;;;5001326;28;20212;-72
2023/05/09 10:38:03;;;;;;;8.95;7.18;;;23.10;89.30;;;;;;4986225;28;20912;-71
2023/05/09 10:40:32;;;;;;;7.47;6.70;;;23.30;87.20;;;;;;4987814;28;20042;-71
2023/05/09 10:43:00;;;;;;;8.05;6.38;;;23.40;85.80;;;;;;4987404;28;20057;-70
2023/05/09 10:45:28;;;;;;;7.10;6.40;;;23.60;86.30;;;;;;4972177;28;20498;-71
2023/05/09 10:47:56;;;;;;;7.28;6.55;;;23.90;85.80;;;;;;4988808;28;20053;-71
2023/05/09 10:50:25;;;;;;;9.15;6.47;;;24.10;85.10;;;;;;4989235;28;20118;-71
2023/05/09 10:53:12;;;;;;;9.93;6.68;;;24.40;82.60;;;;;;4989366;28;20053;-71
2023/05/09 10:55:46;;;;;;;9.82;6.60;;;24.50;78.60;;;;;;4985298;28;20066;-70
2023/05/09 10:58:32;;;;;;;10.35;6.28;;;24.60;77.40;;;;;;4989314;28;20514;-71
2023/05/09 11:01:01;;;;;;;7.13;6.43;;;24.70;80.20;;;;;;4987133;28;20050;-71
2023/05/09 11:04:11;;;;;;;7.25;6.55;;;24.80;79.90;;;;;;4978132;28;20539;-71
2023/05/09 11:06:48;;;;;;;8.55;6.32;;;24.70;77.00;;;;;;4909810;29;20058;-73
2023/05/09 11:09:33;;;;;;;7.05;6.28;;;24.50;78.20;;;;;;4929848;29;20044;-72
2023/05/09 11:12:09;;;;;;;6.68;6.05;;;24.40;76.10;;;;;;4912232;29;20720;-73
2023/05/09 11:14:40;;;;;;;7.13;6.47;;;24.60;77.20;;;;;;4928785;29;20158;-73
2023/05/09 11:17:09;;;;;;;6.55;5.95;;;25.00;73.90;;;;;;4915614;29;20392;-72
2023/05/09 11:19:37;;;;;;;8.18;6.60;;;25.30;74.10;;;;;;4914066;29;20142;-73
2023/05/09 11:22:26;;;;;;;7.25;6.55;;;25.50;74.60;;;;;;4927175;29;20155;-73
2023/05/09 11:25:05;;;;;;;10.55;7.18;;;25.80;74.30;;;;;;4913412;29;20048;-72
2023/05/09 11:27:49;;;;;;;6.90;6.20;;;25.70;72.50;;;;;;4910154;29;20080;-74
2023/05/09 11:30:18;;;;;;;8.82;5.80;;;26.10;71.10;;;;;;4913607;29;20060;-74
2023/05/09 11:32:54;;;;;;;6.65;5.95;;;26.20;68.10;;;;;;4936403;28;20043;-73
2023/05/09 11:35:28;;;;;;;6.43;5.90;;;26.50;66.40;;;;;;4917704;29;20058;-75
2023/05/09 11:38:03;;;;;;;7.28;6.00;;;26.80;61.20;;;;;;4964261;28;20077;-72
2023/05/09 11:40:33;;;;;;;6.18;5.57;;;26.60;60.70;;;;;;4992589;28;20048;-74
2023/05/09 11:43:01;;;;;;;5.90;5.40;;;26.50;59.20;;;;;;4991325;28;20038;-70
2023/05/09 11:45:31;;;;;;;8.50;5.80;;;26.90;59.50;;;;;;4990456;28;20043;-73
2023/05/09 11:47:59;;;;;;;8.35;6.35;;;27.20;58.20;;;;;;4997172;28;20053;-74
2023/05/09 11:50:27;;;;;;;6.93;6.10;;;27.20;57.50;;;;;;4981422;28;20047;-75
2023/05/09 11:52:55;;;;;;;6.45;5.75;;;27.60;56.00;;;;;;4998463;28;20050;-72
2023/05/09 11:55:24;;;;;;;7.15;5.82;;;28.00;55.40;;;;;;4993419;28;20038;-72
2023/05/09 11:57:53;;;;;;;6.20;5.70;;;28.40;55.70;;;;;;4993842;28;20046;-71
2023/05/09 12:00:22;;;;;;;7.97;5.70;;;28.80;55.20;;;;;;4994799;28;20093;-73
2023/05/09 12:02:51;;;;;;;6.57;5.38;;;28.70;54.30;;;;;;4982444;28;20145;-73
2023/05/09 12:05:22;;;;;;;6.03;5.07;;;28.40;53.50;;;;;;4998999;28;20044;-72
2023/05/09 12:07:51;;;;;;;6.95;5.53;;;28.80;53.00;;;;;;4990828;28;20043;-72
2023/05/09 12:10:21;;;;;;;9.27;5.45;;;28.70;51.00;;;;;;4991818;28;20081;-72
2023/05/09 12:12:50;;;;;;;5.65;5.15;;;29.00;49.80;;;;;;4995500;28;20152;-71
2023/05/09 12:15:19;;;;;;;5.72;5.07;;;29.70;49.00;;;;;;4992266;28;20051;-73
2023/05/09 12:18:01;;;;;;;5.75;5.18;;;30.10;48.60;;;;;;4992226;28;20521;-73
2023/05/09 12:20:51;;;;;;;6.28;5.68;;;29.80;49.10;;;;;;4974320;28;20084;-74
2023/05/09 12:23:19;;;;;;;6.35;5.75;;;30.00;48.40;;;;;;4991818;28;20152;-74
2023/05/09 12:25:52;;;;;;;8.77;5.50;;;29.90;47.50;;;;;;4991889;28;20045;-74
2023/05/09 12:28:25;;;;;;;9.02;7.18;;;30.20;47.20;;;;;;4976240;28;20084;-74
2023/05/09 12:30:53;;;;;;;5.03;4.50;;;30.50;46.50;;;;;;4993439;28;20035;-74
2023/05/09 12:33:21;;;;;;;5.35;4.72;;;30.60;45.30;;;;;;4991044;28;20054;-72
2023/05/09 12:36:04;;;;;;;5.90;5.35;;;30.60;45.40;;;;;;4958745;28;20062;-71
2023/05/09 12:38:32;;;;;;;6.75;5.78;;;31.20;45.30;;;;;;4990112;28;20050;-72
2023/05/09 12:41:08;;;;;;;8.50;6.03;;;31.50;46.10;;;;;;4973343;28;20052;-72
2023/05/09 12:43:52;;;;;;;6.55;5.95;;;31.90;46.70;;;;;;4975655;28;20559;-70
2023/05/09 12:46:20;;;;;;;7.25;6.55;;;32.60;46.40;;;;;;4983065;28;20074;-71
2023/05/09 12:48:48;;;;;;;6.63;5.90;;;32.70;46.00;;;;;;4993764;28;20566;-70
2023/05/09 12:51:21;;;;;;;6.45;5.60;;;32.30;45.90;;;;;;4984886;28;20049;-73
2023/05/09 12:53:49;;;;;;;6.75;5.65;;;32.90;44.90;;;;;;4985623;28;20407;-72